Time;durP1;ratioP1;P1;durP2;ratioP2;P2;SDS_P1;SDS_P2;PMS_P1;PMS_P2;Temp;Humidity;BMP_temperature;BMP_pressure;BME280_temperature;BME280_humidity;BME280_pressure;Samples;Min_cycle;Max_cycle;Signal;HPM_P1;HPM_P2
2021/12/13 00:01:19;;;;;;;10.52;2.00;;;11.80;96.20;;;;;;5046671;28;20041;-64
2021/12/13 00:03:47;;;;;;;6.15;1.50;;;11.80;96.60;;;;;;5053525;28;20071;-63
2021/12/13 00:06:17;;;;;;;5.53;1.25;;;11.80;96.40;;;;;;5045163;28;20041;-62
2021/12/13 00:08:52;;;;;;;14.13;3.75;;;11.80;96.20;;;;;;5035293;28;20040;-63
2021/12/13 00:11:24;;;;;;;8.25;1.92;;;11.80;96.10;;;;;;5035028;28;20092;-62
2021/12/13 00:13:56;;;;;;;6.45;1.70;;;11.80;96.00;;;;;;5033429;28;20051;-63
2021/12/13 00:16:30;;;;;;;8.18;1.73;;;11.80;96.00;;;;;;5034191;28;20080;-62
2021/12/13 00:19:09;;;;;;;11.18;1.20;;;11.80;96.10;;;;;;5047727;28;20492;-63
2021/12/13 00:21:38;;;;;;;8.70;1.45;;;11.80;96.20;;;;;;5039959;28;20093;-63
2021/12/13 00:24:11;;;;;;;7.13;1.40;;;11.80;96.00;;;;;;5027658;28;20577;-64
2021/12/13 00:26:41;;;;;;;7.07;1.20;;;11.80;96.00;;;;;;5015646;28;20049;-63
2021/12/13 00:29:19;;;;;;;4.82;1.30;;;11.80;96.10;;;;;;5045255;28;20465;-62
2021/12/13 00:31:51;;;;;;;9.73;1.88;;;11.80;96.10;;;;;;5036651;28;20087;-62
2021/12/13 00:34:23;;;;;;;7.25;1.70;;;11.70;96.00;;;;;;5034082;28;20084;-62
2021/12/13 00:36:54;;;;;;;4.95;1.35;;;11.70;96.00;;;;;;5040111;28;20072;-61
2021/12/13 00:39:25;;;;;;;10.38;1.73;;;11.80;96.10;;;;;;5049757;28;20437;-62
2021/12/13 00:41:52;;;;;;;10.18;2.15;;;11.70;96.10;;;;;;5018791;28;20086;-62
2021/12/13 00:44:28;;;;;;;13.20;1.50;;;11.70;96.10;;;;;;5053511;28;20253;-63
2021/12/13 00:46:56;;;;;;;4.88;1.42;;;11.70;96.10;;;;;;5037860;28;20057;-63
2021/12/13 00:49:25;;;;;;;7.88;1.38;;;11.70;96.20;;;;;;5054483;28;20477;-62
2021/12/13 00:51:56;;;;;;;9.88;1.38;;;11.70;96.20;;;;;;5037416;28;20091;-62
2021/12/13 00:54:29;;;;;;;5.53;1.05;;;11.70;96.30;;;;;;5056295;28;20040;-64
2021/12/13 00:57:04;;;;;;;3.80;1.30;;;11.70;96.30;;;;;;5037426;28;20089;-63
2021/12/13 00:59:37;;;;;;;6.82;1.95;;;11.70;96.50;;;;;;5044963;28;20099;-62
2021/12/13 01:02:14;;;;;;;4.05;0.95;;;11.60;96.60;;;;;;5023025;28;20103;-62
2021/12/13 01:04:51;;;;;;;3.13;1.05;;;11.60;96.70;;;;;;5042412;28;20049;-62
2021/12/13 01:07:33;;;;;;;3.67;1.27;;;11.60;96.70;;;;;;5046426;28;20507;-62
2021/12/13 01:10:37;;;;;;;7.22;1.25;;;11.50;96.80;;;;;;5051716;28;20075;-62
2021/12/13 01:13:27;;;;;;;4.00;1.13;;;11.50;96.90;;;;;;5037318;28;20048;-62
2021/12/13 01:16:20;;;;;;;7.45;1.20;;;11.50;97.00;;;;;;5048115;28;20096;-62
2021/12/13 01:19:28;;;;;;;8.45;1.20;;;11.50;96.90;;;;;;5024522;28;20139;-62
2021/12/13 01:21:56;;;;;;;10.90;1.63;;;11.50;96.90;;;;;;5047971;28;20077;-61
2021/12/13 01:27:12;;;;;;;6.47;1.60;;;11.50;97.00;;;;;;5039165;28;20052;-62
2021/12/13 01:29:38;;;;;;;4.72;1.33;;;11.50;97.00;;;;;;5051609;28;20080;-62
2021/12/13 01:32:07;;;;;;;6.10;1.33;;;11.50;97.20;;;;;;5050002;28;20080;-62
2021/12/13 01:34:35;;;;;;;6.13;1.92;;;11.50;97.00;;;;;;5027791;28;20063;-62
2021/12/13 01:37:15;;;;;;;4.68;1.48;;;11.50;97.10;;;;;;5041737;28;20045;-62
2021/12/13 01:39:45;;;;;;;5.90;1.20;;;11.50;97.20;;;;;;5046108;28;20471;-62
2021/12/13 01:42:14;;;;;;;4.50;1.60;;;11.50;97.30;;;;;;5044207;28;20041;-60
2021/12/13 01:44:47;;;;;;;8.05;1.40;;;11.50;97.50;;;;;;5046473;28;20118;-62
2021/12/13 01:47:20;;;;;;;5.93;1.08;;;11.50;97.40;;;;;;5043928;28;20045;-61
2021/12/13 01:49:51;;;;;;;7.77;1.60;;;11.50;97.50;;;;;;5028527;28;20052;-62
2021/12/13 01:52:22;;;;;;;4.38;1.25;;;11.50;97.60;;;;;;4697114;28;10000345;-62
2021/12/13 01:54:50;;;;;;;12.88;3.00;;;11.40;97.50;;;;;;5044152;28;20093;-62
2021/12/13 01:57:25;;;;;;;4.47;1.30;;;11.40;97.60;;;;;;5053221;28;20053;-62
2021/12/13 02:00:17;;;;;;;5.68;1.15;;;11.40;97.60;;;;;;5044013;28;20454;-62
2021/12/13 02:02:46;;;;;;;7.78;1.00;;;11.40;97.60;;;;;;5047129;28;20084;-62
2021/12/13 02:05:22;;;;;;;7.47;1.65;;;11.40;97.60;;;;;;5044207;28;20335;-62
2021/12/13 02:07:50;;;;;;;8.95;1.48;;;11.40;97.60;;;;;;5053751;28;20088;-61
2021/12/13 02:10:27;;;;;;;6.53;1.90;;;11.40;97.60;;;;;;5042961;28;20109;-62
2021/12/13 02:12:58;;;;;;;5.47;1.20;;;11.40;97.70;;;;;;5029430;28;20045;-62
2021/12/13 02:18:15;;;;;;;7.00;0.98;;;11.30;97.60;;;;;;5039853;28;20418;-61
2021/12/13 02:20:46;;;;;;;9.40;1.75;;;11.30;97.70;;;;;;5054041;28;20075;-62
2021/12/13 02:23:12;;;;;;;5.28;1.23;;;11.20;97.90;;;;;;5056303;28;20080;-62
2021/12/13 02:25:42;;;;;;;10.52;2.83;;;11.20;97.90;;;;;;5040390;28;20079;-63
2021/12/13 02:28:15;;;;;;;13.25;1.52;;;11.20;98.00;;;;;;5026415;28;20088;-61
2021/12/13 02:31:04;;;;;;;7.07;1.30;;;11.10;97.90;;;;;;5049924;28;20048;-64
2021/12/13 02:33:43;;;;;;;5.35;1.10;;;11.10;98.10;;;;;;5048143;28;20106;-61
2021/12/13 02:36:11;;;;;;;7.68;1.50;;;11.10;98.30;;;;;;5048467;28;20102;-62
2021/12/13 02:38:39;;;;;;;6.22;1.30;;;11.00;98.20;;;;;;5033621;28;20503;-63
2021/12/13 02:41:06;;;;;;;7.93;1.38;;;11.00;98.20;;;;;;5020698;28;20076;-63
2021/12/13 02:43:38;;;;;;;1.75;1.00;;;11.10;98.20;;;;;;5049457;28;20071;-63
2021/12/13 02:46:05;;;;;;;7.40;2.20;;;11.10;98.20;;;;;;5040504;28;20160;-62
2021/12/13 02:48:38;;;;;;;10.10;1.85;;;11.10;98.10;;;;;;5057566;28;20095;-62
2021/12/13 02:51:17;;;;;;;5.40;1.38;;;11.10;98.10;;;;;;5041261;28;20056;-63
2021/12/13 02:54:11;;;;;;;9.85;1.20;;;11.10;98.00;;;;;;5057867;28;20064;-63
2021/12/13 02:56:52;;;;;;;10.90;1.13;;;11.10;98.20;;;;;;5041211;28;20052;-63
2021/12/13 02:59:21;;;;;;;5.75;1.27;;;11.10;98.10;;;;;;5033033;28;20527;-66
2021/12/13 03:01:58;;;;;;;7.00;1.38;;;11.20;98.10;;;;;;5042454;28;20524;-63
2021/12/13 03:04:26;;;;;;;4.22;1.13;;;11.10;98.10;;;;;;5057200;28;20052;-63
2021/12/13 03:06:59;;;;;;;7.82;1.90;;;11.10;98.10;;;;;;5040527;28;20072;-63
2021/12/13 03:09:29;;;;;;;6.75;1.30;;;11.20;98.10;;;;;;5045452;28;20048;-63
2021/12/13 03:11:56;;;;;;;11.13;1.20;;;11.20;98.10;;;;;;5040531;28;20428;-62
2021/12/13 03:14:34;;;;;;;4.72;1.83;;;11.20;98.20;;;;;;5057439;28;20053;-62
2021/12/13 03:17:13;;;;;;;5.22;1.45;;;11.20;98.10;;;;;;5040943;28;20041;-62
2021/12/13 03:20:02;;;;;;;5.63;0.93;;;11.20;98.10;;;;;;5040449;28;20071;-63
2021/12/13 03:22:46;;;;;;;5.47;1.10;;;11.20;98.10;;;;;;5043687;28;20056;-62
2021/12/13 03:25:15;;;;;;;6.10;1.10;;;11.20;98.20;;;;;;5029700;28;20053;-62
2021/12/13 03:28:10;;;;;;;6.35;1.02;;;11.20;98.00;;;;;;5038796;28;20077;-64
2021/12/13 03:30:55;;;;;;;6.13;1.05;;;11.30;98.00;;;;;;5048196;28;20147;-62
2021/12/13 03:33:48;;;;;;;6.63;1.67;;;11.30;97.90;;;;;;5037202;28;20141;-63
2021/12/13 03:36:18;;;;;;;5.10;0.82;;;11.30;97.90;;;;;;5044834;28;20053;-62
2021/12/13 03:38:49;;;;;;;5.85;1.58;;;11.30;97.80;;;;;;5042794;28;20076;-62
2021/12/13 03:41:20;;;;;;;5.05;0.95;;;11.30;97.80;;;;;;5044849;28;20075;-64
2021/12/13 03:43:58;;;;;;;5.40;1.48;;;11.30;97.70;;;;;;5049162;28;20234;-62
2021/12/13 03:46:25;;;;;;;7.10;1.10;;;11.30;97.80;;;;;;5041763;28;20484;-63
2021/12/13 03:48:53;;;;;;;8.18;1.02;;;11.30;97.80;;;;;;5046188;28;20098;-63
2021/12/13 03:51:22;;;;;;;5.38;1.25;;;11.30;97.80;;;;;;5020126;28;20073;-63
2021/12/13 03:53:50;;;;;;;7.50;1.05;;;11.20;97.80;;;;;;5045500;28;20094;-63
2021/12/13 03:56:20;;;;;;;7.20;1.45;;;11.20;97.80;;;;;;5039931;28;20516;-63
2021/12/13 03:58:50;;;;;;;7.82;1.55;;;11.20;97.80;;;;;;5038299;28;20088;-63
2021/12/13 04:01:21;;;;;;;2.97;1.00;;;11.20;97.80;;;;;;5048000;28;20049;-64
2021/12/13 04:03:48;;;;;;;6.63;1.10;;;11.30;97.80;;;;;;5028865;28;20041;-64
2021/12/13 04:06:16;;;;;;;9.93;0.88;;;11.30;97.70;;;;;;5047420;28;20600;-62
2021/12/13 04:08:50;;;;;;;4.82;1.00;;;11.20;97.70;;;;;;5031392;28;20048;-63
2021/12/13 04:11:17;;;;;;;2.97;1.35;;;11.20;97.70;;;;;;5024495;28;20049;-64
2021/12/13 04:14:00;;;;;;;7.70;1.23;;;11.20;97.70;;;;;;5029706;28;20123;-62
2021/12/13 04:16:50;;;;;;;3.67;0.90;;;11.20;97.70;;;;;;5001520;28;20045;-63
2021/12/13 04:19:19;;;;;;;7.22;1.27;;;11.10;97.90;;;;;;5042846;28;20048;-64
2021/12/13 04:21:55;;;;;;;7.70;0.98;;;11.10;97.70;;;;;;5011757;28;20041;-62
2021/12/13 04:25:06;;;;;;;3.58;0.95;;;11.10;97.70;;;;;;5035168;28;20139;-63
2021/12/13 04:27:40;;;;;;;2.88;0.88;;;11.10;97.90;;;;;;4986627;28;20045;-63
2021/12/13 04:30:38;;;;;;;9.13;2.08;;;11.10;97.90;;;;;;5044123;28;20049;-62
2021/12/13 04:33:09;;;;;;;4.75;0.75;;;11.10;97.90;;;;;;5026644;28;20103;-62
2021/12/13 04:35:35;;;;;;;8.13;1.02;;;11.10;97.90;;;;;;5045456;28;20073;-63
2021/12/13 04:38:03;;;;;;;4.40;0.75;;;11.10;97.90;;;;;;5043681;28;20101;-63
2021/12/13 04:40:36;;;;;;;2.13;0.82;;;11.10;97.90;;;;;;5045761;28;20113;-63
2021/12/13 04:43:12;;;;;;;2.90;0.93;;;11.10;98.10;;;;;;5046121;28;20103;-63
2021/12/13 04:45:40;;;;;;;4.80;0.90;;;11.10;97.90;;;;;;5050094;28;20048;-62
2021/12/13 04:48:09;;;;;;;3.83;1.30;;;11.00;97.80;;;;;;5046785;28;20046;-62
2021/12/13 04:50:50;;;;;;;4.07;1.02;;;11.00;97.90;;;;;;5049725;28;20157;-62
2021/12/13 04:53:25;;;;;;;1.80;0.70;;;11.00;97.90;;;;;;5039468;28;20041;-63
2021/12/13 04:55:52;;;;;;;4.55;1.00;;;11.00;97.90;;;;;;5050566;28;20150;-63
2021/12/13 04:58:19;;;;;;;4.07;1.00;;;10.90;97.90;;;;;;5057607;28;20094;-63
2021/12/13 05:00:50;;;;;;;4.68;1.00;;;11.00;97.90;;;;;;5048924;28;20041;-62
2021/12/13 05:03:18;;;;;;;4.22;1.20;;;11.00;98.00;;;;;;5038944;28;20301;-62
2021/12/13 05:05:45;;;;;;;4.13;1.23;;;10.90;98.00;;;;;;5046695;28;20140;-62
2021/12/13 05:08:14;;;;;;;9.27;2.95;;;10.90;98.00;;;;;;5056409;28;20045;-63
2021/12/13 05:10:44;;;;;;;5.25;1.90;;;11.00;98.00;;;;;;5048114;28;20638;-64
2021/12/13 05:13:13;;;;;;;7.63;2.85;;;11.00;98.00;;;;;;5048552;28;20076;-63
2021/12/13 05:15:42;;;;;;;3.92;1.10;;;11.00;98.00;;;;;;5041992;28;20073;-64
2021/12/13 05:18:21;;;;;;;5.28;1.10;;;11.00;98.10;;;;;;5048744;28;20110;-63
2021/12/13 05:20:58;;;;;;;5.45;1.45;;;11.00;98.20;;;;;;5039652;28;20187;-62
2021/12/13 05:23:25;;;;;;;4.07;1.13;;;11.00;98.20;;;;;;5047151;28;20072;-62
2021/12/13 05:25:54;;;;;;;6.40;1.25;;;11.10;98.30;;;;;;5045160;28;20049;-62
2021/12/13 05:28:24;;;;;;;4.32;1.80;;;11.00;98.30;;;;;;5061773;28;20091;-62
2021/12/13 05:30:59;;;;;;;3.13;0.98;;;11.00;98.30;;;;;;5040433;28;20041;-64
2021/12/13 05:33:28;;;;;;;2.33;0.98;;;11.00;98.30;;;;;;5061640;28;20140;-63
2021/12/13 05:35:59;;;;;;;4.20;1.40;;;11.10;98.30;;;;;;5024552;28;20049;-62
2021/12/13 05:38:54;;;;;;;3.67;1.17;;;11.10;98.40;;;;;;5059689;28;20041;-62
2021/12/13 05:41:23;;;;;;;4.25;1.52;;;11.10;98.40;;;;;;5036642;28;20071;-62
2021/12/13 05:43:52;;;;;;;3.58;1.30;;;11.20;98.40;;;;;;5059651;28;20074;-62
2021/12/13 05:46:23;;;;;;;3.22;1.48;;;11.20;98.40;;;;;;5040713;28;20049;-62
2021/12/13 05:48:53;;;;;;;2.58;1.00;;;11.20;98.40;;;;;;5059663;28;20063;-63
2021/12/13 05:51:44;;;;;;;6.05;1.48;;;11.20;98.30;;;;;;5041144;28;20084;-62
2021/12/13 05:54:15;;;;;;;3.67;1.27;;;11.20;98.60;;;;;;5053364;28;20083;-62
2021/12/13 05:56:47;;;;;;;6.13;1.05;;;11.20;98.50;;;;;;5005964;28;20049;-63
2021/12/13 05:59:39;;;;;;;3.08;1.35;;;11.20;98.50;;;;;;5057718;28;20076;-63
2021/12/13 06:02:15;;;;;;;4.57;1.10;;;11.30;98.50;;;;;;5024277;28;20049;-62
2021/12/13 06:05:14;;;;;;;4.65;1.33;;;11.20;98.50;;;;;;5058048;28;20072;-61
2021/12/13 06:07:40;;;;;;;6.50;1.25;;;11.20;98.60;;;;;;5043418;28;20048;-62
2021/12/13 06:10:13;;;;;;;8.40;1.02;;;11.20;98.60;;;;;;5058379;28;20065;-61
2021/12/13 06:12:54;;;;;;;4.25;1.08;;;11.20;98.60;;;;;;5023552;28;20076;-62
2021/12/13 06:15:31;;;;;;;3.28;0.88;;;11.20;98.60;;;;;;5056318;28;20068;-61
2021/12/13 06:18:04;;;;;;;6.10;1.08;;;11.30;98.60;;;;;;5041950;28;20052;-62
2021/12/13 06:20:50;;;;;;;2.70;0.90;;;11.30;98.50;;;;;;5057049;28;20056;-61
2021/12/13 06:23:20;;;;;;;6.45;0.95;;;11.30;98.50;;;;;;5039458;28;20081;-62
2021/12/13 06:25:52;;;;;;;2.92;1.10;;;11.40;98.40;;;;;;5031375;28;20045;-61
2021/12/13 06:28:41;;;;;;;2.97;1.05;;;11.30;98.40;;;;;;5021771;28;20069;-62
2021/12/13 06:31:16;;;;;;;3.08;1.10;;;11.30;98.40;;;;;;5039002;28;20057;-62
2021/12/13 06:33:58;;;;;;;1.63;0.82;;;11.30;98.40;;;;;;5022266;28;20041;-61
2021/12/13 06:36:26;;;;;;;7.72;1.10;;;11.30;98.40;;;;;;5022367;28;20058;-61
2021/12/13 06:39:04;;;;;;;3.35;0.70;;;11.30;98.40;;;;;;5024051;28;20410;-62
2021/12/13 06:41:38;;;;;;;0.73;0.50;;;11.40;98.50;;;;;;5020455;28;20111;-61
2021/12/13 06:44:25;;;;;;;9.68;1.23;;;11.30;98.40;;;;;;5020375;28;20465;-61
2021/12/13 06:47:01;;;;;;;4.82;0.98;;;11.30;98.50;;;;;;5027719;28;20045;-61
2021/12/13 06:49:31;;;;;;;4.25;1.17;;;11.30;98.50;;;;;;5022928;28;20049;-62
2021/12/13 06:52:01;;;;;;;7.72;1.20;;;11.30;98.60;;;;;;5033253;28;20127;-62
2021/12/13 06:54:35;;;;;;;2.78;0.60;;;11.30;98.60;;;;;;5027792;28;20081;-62
2021/12/13 06:57:11;;;;;;;3.13;0.93;;;11.30;98.70;;;;;;5020310;28;20081;-61
2021/12/13 06:59:50;;;;;;;3.35;1.00;;;11.30;99.10;;;;;;5017695;28;20045;-62
2021/12/13 07:02:35;;;;;;;6.10;0.95;;;11.30;99.10;;;;;;5020000;28;20512;-62
2021/12/13 07:05:02;;;;;;;10.50;1.25;;;11.30;98.90;;;;;;5025748;28;20057;-62
2021/12/13 07:07:36;;;;;;;2.95;0.93;;;11.30;98.80;;;;;;5016569;28;20349;-62
2021/12/13 07:10:10;;;;;;;7.22;0.93;;;11.40;98.90;;;;;;5020103;28;20042;-61
2021/12/13 07:12:47;;;;;;;7.82;0.80;;;11.40;98.80;;;;;;5027234;28;20133;-62
2021/12/13 07:15:36;;;;;;;2.47;0.70;;;11.40;98.90;;;;;;5008973;28;20046;-61
2021/12/13 07:18:08;;;;;;;3.85;0.88;;;11.40;98.90;;;;;;5022270;28;20053;-62
2021/12/13 07:20:51;;;;;;;2.75;1.00;;;11.40;98.90;;;;;;5027640;28;20045;-62
2021/12/13 07:23:18;;;;;;;3.53;0.90;;;11.30;98.90;;;;;;5012578;28;20053;-62
2021/12/13 07:25:45;;;;;;;5.60;1.65;;;11.40;98.90;;;;;;5011357;28;20076;-63
2021/12/13 07:28:25;;;;;;;2.55;0.93;;;11.40;98.90;;;;;;5033900;28;20412;-62
2021/12/13 07:30:52;;;;;;;3.13;0.70;;;11.40;98.90;;;;;;5036050;28;20049;-62
2021/12/13 07:33:19;;;;;;;4.43;1.35;;;11.40;98.80;;;;;;5002043;28;20492;-61
2021/12/13 07:35:47;;;;;;;3.92;0.93;;;11.40;98.80;;;;;;5035899;28;20098;-60
2021/12/13 07:38:17;;;;;;;3.05;0.90;;;11.50;98.80;;;;;;5032170;28;20045;-59
2021/12/13 07:40:49;;;;;;;3.60;1.00;;;11.50;98.80;;;;;;5019550;28;20067;-60
2021/12/13 07:43:28;;;;;;;2.72;1.05;;;11.50;98.80;;;;;;5031764;28;20095;-61
2021/12/13 07:46:18;;;;;;;10.32;1.10;;;11.50;98.80;;;;;;5043287;28;20103;-59
2021/12/13 07:48:45;;;;;;;4.40;1.48;;;11.50;98.90;;;;;;5017954;28;20038;-61
2021/12/13 07:51:26;;;;;;;2.25;1.10;;;11.50;98.80;;;;;;5020995;28;20049;-58
2021/12/13 07:53:58;;;;;;;9.70;2.55;;;11.50;98.80;;;;;;5043721;28;20058;-59
2021/12/13 07:56:36;;;;;;;4.20;1.60;;;11.50;98.80;;;;;;5022716;28;20762;-59
2021/12/13 07:59:23;;;;;;;6.05;1.48;;;11.40;98.90;;;;;;5024292;28;20045;-60
2021/12/13 08:02:18;;;;;;;11.98;1.42;;;11.40;98.90;;;;;;5024005;28;20488;-58
2021/12/13 08:04:48;;;;;;;3.88;1.20;;;11.40;99.10;;;;;;4995540;28;20046;-59
2021/12/13 08:07:24;;;;;;;6.32;1.33;;;11.30;98.90;;;;;;5027495;28;20080;-60
2021/12/13 08:09:59;;;;;;;6.43;1.25;;;11.40;98.90;;;;;;5038507;28;20049;-59
2021/12/13 08:12:35;;;;;;;4.32;1.23;;;11.40;99.00;;;;;;5036724;28;20518;-58
2021/12/13 08:15:17;;;;;;;7.13;1.38;;;11.40;98.90;;;;;;5036681;28;20111;-59
2021/12/13 08:17:56;;;;;;;3.47;1.23;;;11.40;98.80;;;;;;5027204;28;20084;-58
2021/12/13 08:21:03;;;;;;;6.93;1.55;;;11.40;98.80;;;;;;5033559;28;20045;-59
2021/12/13 08:23:46;;;;;;;3.50;1.40;;;11.40;98.80;;;;;;5042699;28;20127;-59
2021/12/13 08:26:44;;;;;;;11.45;1.77;;;11.50;98.70;;;;;;5038480;28;20488;-60
2021/12/13 08:29:23;;;;;;;3.97;1.55;;;11.50;98.70;;;;;;5039229;28;20049;-60
2021/12/13 08:31:51;;;;;;;10.15;3.92;;;11.50;98.60;;;;;;5030249;28;20618;-60
2021/12/13 08:34:34;;;;;;;5.70;1.35;;;11.50;98.60;;;;;;5030413;28;20115;-59
2021/12/13 08:37:09;;;;;;;7.90;1.50;;;11.50;98.70;;;;;;5038859;28;20081;-60
2021/12/13 08:39:36;;;;;;;6.47;1.60;;;11.50;98.40;;;;;;5032804;28;20111;-60
2021/12/13 08:42:12;;;;;;;5.95;2.17;;;11.60;98.40;;;;;;5041081;28;20050;-60
2021/12/13 08:44:53;;;;;;;6.75;1.58;;;11.50;98.30;;;;;;5058323;28;20049;-60
2021/12/13 08:47:24;;;;;;;3.83;1.60;;;11.60;98.30;;;;;;5030291;28;20045;-60
2021/12/13 08:49:53;;;;;;;4.45;1.83;;;11.50;98.40;;;;;;5050249;28;20733;-60
2021/12/13 08:52:30;;;;;;;11.20;2.17;;;11.50;98.30;;;;;;5045023;28;20281;-60
2021/12/13 08:55:06;;;;;;;4.20;1.55;;;11.60;98.30;;;;;;5030861;28;20095;-60
2021/12/13 08:57:36;;;;;;;11.98;1.83;;;11.60;98.30;;;;;;5040038;28;20044;-61
2021/12/13 09:00:21;;;;;;;7.15;1.38;;;11.60;98.30;;;;;;5044985;28;20145;-60
2021/12/13 09:03:10;;;;;;;7.07;1.40;;;11.60;98.00;;;;;;5034717;28;20361;-61
2021/12/13 09:05:40;;;;;;;9.90;2.05;;;11.60;98.20;;;;;;5035475;28;20045;-61
2021/12/13 09:08:09;;;;;;;6.47;2.28;;;11.50;98.00;;;;;;5037283;28;20057;-61
2021/12/13 09:10:42;;;;;;;5.93;1.60;;;11.50;97.80;;;;;;5054022;28;20045;-61
2021/12/13 09:13:09;;;;;;;11.75;1.92;;;11.50;97.90;;;;;;5049026;28;20403;-61
2021/12/13 09:15:36;;;;;;;10.00;2.13;;;11.50;97.90;;;;;;5022453;28;20472;-60
2021/12/13 09:18:04;;;;;;;12.02;1.52;;;11.60;97.90;;;;;;5037223;28;20106;-60
2021/12/13 09:20:41;;;;;;;11.27;2.60;;;11.60;97.80;;;;;;5050381;28;20041;-60
2021/12/13 09:23:17;;;;;;;6.50;1.55;;;11.60;97.80;;;;;;5015339;28;20086;-60
2021/12/13 09:25:47;;;;;;;8.15;1.60;;;11.60;97.80;;;;;;5050015;28;20171;-60
2021/12/13 09:28:26;;;;;;;5.97;2.40;;;11.60;97.70;;;;;;5050885;28;20447;-60
2021/12/13 09:31:02;;;;;;;5.95;2.40;;;11.60;97.90;;;;;;5049563;28;20045;-61
2021/12/13 09:33:50;;;;;;;9.95;2.00;;;11.60;97.70;;;;;;5036129;28;20041;-60
2021/12/13 09:36:23;;;;;;;7.68;1.60;;;11.60;97.70;;;;;;5051568;28;20060;-60
2021/12/13 09:38:58;;;;;;;9.07;1.80;;;11.60;97.60;;;;;;5046433;28;20045;-61
2021/12/13 09:41:42;;;;;;;4.43;2.22;;;11.60;97.60;;;;;;5045437;28;20052;-61
2021/12/13 09:44:09;;;;;;;3.08;1.23;;;11.60;97.50;;;;;;5021515;28;20054;-60
2021/12/13 09:46:52;;;;;;;4.15;1.40;;;11.60;97.70;;;;;;5057267;28;20499;-60
2021/12/13 09:49:22;;;;;;;8.32;1.45;;;11.60;97.50;;;;;;5041994;28;20418;-61
2021/12/13 09:51:52;;;;;;;10.40;1.92;;;11.70;97.70;;;;;;5058521;28;20087;-59
2021/12/13 09:54:21;;;;;;;7.78;1.45;;;11.60;97.50;;;;;;5042277;28;20123;-59
2021/12/13 09:56:49;;;;;;;9.52;1.55;;;11.60;97.70;;;;;;5035833;28;20473;-60
2021/12/13 09:59:24;;;;;;;6.15;1.17;;;11.60;97.60;;;;;;5037414;28;20050;-59
2021/12/13 10:01:51;;;;;;;7.43;1.63;;;11.60;97.50;;;;;;5047502;28;20045;-59
2021/12/13 10:04:29;;;;;;;2.97;1.60;;;11.60;97.60;;;;;;5042364;28;20115;-60
2021/12/13 10:07:00;;;;;;;8.00;1.42;;;11.60;97.40;;;;;;5044514;28;20052;-59
2021/12/13 10:09:36;;;;;;;7.72;1.92;;;11.60;97.40;;;;;;5042055;28;20045;-60
2021/12/13 10:12:13;;;;;;;4.18;1.58;;;11.60;97.30;;;;;;5046131;28;20056;-60
2021/12/13 10:14:45;;;;;;;7.35;1.55;;;11.50;97.30;;;;;;5035684;28;20045;-60
2021/12/13 10:17:12;;;;;;;7.95;1.33;;;11.50;97.30;;;;;;5025703;28;20134;-61
2021/12/13 10:19:42;;;;;;;5.60;1.20;;;11.50;97.30;;;;;;5037712;28;20061;-60
2021/12/13 10:22:10;;;;;;;3.38;0.95;;;11.50;97.30;;;;;;5044585;28;20073;-60
2021/12/13 10:24:40;;;;;;;9.13;1.50;;;11.50;97.30;;;;;;5040358;28;20044;-60
2021/12/13 10:27:08;;;;;;;5.25;1.00;;;11.40;97.20;;;;;;5042762;28;20049;-61
2021/12/13 10:29:45;;;;;;;5.63;1.38;;;11.50;97.30;;;;;;5051985;28;20136;-60
2021/12/13 10:32:15;;;;;;;5.38;0.90;;;11.40;97.20;;;;;;5043411;28;20501;-60
2021/12/13 10:34:45;;;;;;;3.10;0.75;;;11.40;97.10;;;;;;5053057;28;20041;-60
2021/12/13 10:37:40;;;;;;;7.22;1.20;;;11.40;97.30;;;;;;5043633;28;20456;-60
2021/12/13 10:40:18;;;;;;;8.93;1.33;;;11.50;97.40;;;;;;5046050;28;20049;-60
2021/12/13 10:42:51;;;;;;;5.97;1.08;;;11.50;97.40;;;;;;5051831;28;20060;-60
2021/12/13 10:45:23;;;;;;;4.38;1.65;;;11.50;97.40;;;;;;5051108;28;20060;-61
2021/12/13 10:47:52;;;;;;;7.85;1.70;;;11.60;97.40;;;;;;5049459;28;20434;-63
2021/12/13 10:50:50;;;;;;;7.70;1.15;;;11.60;97.30;;;;;;5051756;28;20095;-62
2021/12/13 10:53:19;;;;;;;2.97;0.90;;;11.50;97.40;;;;;;5039498;28;20419;-61
2021/12/13 10:56:07;;;;;;;4.00;0.93;;;11.60;97.50;;;;;;5046734;28;20045;-60
2021/12/13 10:58:39;;;;;;;4.32;1.25;;;11.60;97.40;;;;;;5048147;28;20080;-61
2021/12/13 11:01:12;;;;;;;2.42;0.98;;;11.70;97.40;;;;;;5043479;28;20072;-60
2021/12/13 11:03:39;;;;;;;3.88;0.95;;;11.70;97.20;;;;;;5045676;28;20099;-60
2021/12/13 11:06:07;;;;;;;3.30;1.08;;;11.70;97.10;;;;;;5040330;28;20048;-60
2021/12/13 11:08:34;;;;;;;2.85;0.85;;;11.70;97.10;;;;;;5048857;28;20488;-60
2021/12/13 11:11:32;;;;;;;3.70;1.00;;;11.70;96.80;;;;;;5039346;28;20071;-61
2021/12/13 11:14:02;;;;;;;5.50;0.90;;;11.80;96.30;;;;;;5046662;28;20287;-65
2021/12/13 11:16:34;;;;;;;4.20;0.68;;;11.80;96.70;;;;;;5022016;28;20103;-60
2021/12/13 11:19:04;;;;;;;2.58;0.50;;;11.80;96.60;;;;;;5042647;28;20435;-60
2021/12/13 11:21:34;;;;;;;3.85;1.33;;;11.80;96.40;;;;;;5040244;28;20103;-62
2021/12/13 11:24:02;;;;;;;4.97;0.60;;;11.80;96.50;;;;;;5049995;28;20054;-61
2021/12/13 11:26:31;;;;;;;7.80;0.70;;;11.90;96.30;;;;;;5054530;28;20072;-60
2021/12/13 11:28:59;;;;;;;3.03;1.42;;;11.90;96.50;;;;;;5042582;28;20097;-60
2021/12/13 11:31:29;;;;;;;6.72;2.75;;;12.00;96.70;;;;;;5052678;28;20045;-60
2021/12/13 11:33:59;;;;;;;5.65;1.25;;;11.90;96.70;;;;;;5039639;28;20057;-60
2021/12/13 11:37:07;;;;;;;2.97;0.70;;;12.00;96.80;;;;;;5055305;28;20063;-61
2021/12/13 11:40:19;;;;;;;1.42;0.60;;;12.00;95.80;;;;;;5043654;28;20055;-58
2021/12/13 11:43:10;;;;;;;1.75;0.98;;;12.00;95.70;;;;;;4993716;28;20476;-60
2021/12/13 11:46:07;;;;;;;5.53;0.93;;;12.00;96.10;;;;;;5027531;28;20063;-60
2021/12/13 11:48:53;;;;;;;5.25;0.60;;;12.10;96.00;;;;;;5028203;28;20102;-60
2021/12/13 11:51:55;;;;;;;2.55;0.68;;;12.10;95.70;;;;;;5055747;28;20048;-60
2021/12/13 11:54:48;;;;;;;2.47;0.70;;;12.20;95.10;;;;;;4988625;28;20041;-60
2021/12/13 11:57:55;;;;;;;5.03;0.80;;;12.20;95.50;;;;;;5047377;28;20045;-60
2021/12/13 12:00:36;;;;;;;1.25;0.50;;;12.20;95.20;;;;;;5017481;28;20512;-60
2021/12/13 12:04:01;;;;;;;2.53;0.60;;;12.20;95.70;;;;;;5045113;28;20071;-60
2021/12/13 12:06:46;;;;;;;2.97;0.60;;;12.10;95.50;;;;;;4981307;28;20054;-61
2021/12/13 12:09:21;;;;;;;3.97;0.47;;;12.00;95.20;;;;;;4976754;28;20130;-60
2021/12/13 12:12:09;;;;;;;2.90;0.75;;;11.90;95.80;;;;;;5027032;28;20126;-60
2021/12/13 12:14:36;;;;;;;1.38;0.50;;;11.90;95.90;;;;;;5038615;28;20052;-59
2021/12/13 12:17:04;;;;;;;1.90;0.60;;;11.90;96.00;;;;;;5041208;28;20080;-59
2021/12/13 12:19:34;;;;;;;5.53;1.02;;;11.80;96.20;;;;;;5021145;28;20068;-59
2021/12/13 12:22:17;;;;;;;1.98;0.70;;;11.80;96.10;;;;;;5052775;28;20057;-60
2021/12/13 12:24:58;;;;;;;4.85;1.40;;;11.80;96.20;;;;;;5030123;28;20541;-59
2021/12/13 12:27:35;;;;;;;4.65;0.85;;;11.80;95.90;;;;;;5036136;28;20312;-60
2021/12/13 12:30:11;;;;;;;2.00;0.80;;;11.80;96.10;;;;;;5019029;28;20053;-60
2021/12/13 12:32:40;;;;;;;3.15;0.80;;;11.80;95.90;;;;;;5039973;28;20045;-59
2021/12/13 12:35:13;;;;;;;1.23;0.90;;;11.80;96.00;;;;;;5038499;28;20041;-60
2021/12/13 12:38:18;;;;;;;2.72;1.10;;;11.80;95.90;;;;;;5051567;28;20109;-59
2021/12/13 12:41:06;;;;;;;1.52;0.63;;;11.90;95.80;;;;;;5037063;28;20072;-59
2021/12/13 12:43:36;;;;;;;1.63;0.70;;;11.80;95.90;;;;;;5039039;28;20049;-60
2021/12/13 12:46:13;;;;;;;2.40;0.68;;;11.80;96.30;;;;;;5039757;28;20045;-60
2021/12/13 12:48:45;;;;;;;4.05;0.60;;;11.80;95.60;;;;;;5041932;28;20075;-60
2021/12/13 12:51:17;;;;;;;4.05;0.80;;;11.80;95.60;;;;;;5035946;28;20415;-60
2021/12/13 12:53:47;;;;;;;6.38;0.93;;;11.80;95.80;;;;;;5051329;28;20094;-60
2021/12/13 12:56:21;;;;;;;3.88;0.60;;;11.80;95.70;;;;;;5043371;28;20081;-60
2021/12/13 12:58:55;;;;;;;2.43;0.87;;;11.80;95.70;;;;;;5050896;28;20131;-59
2021/12/13 13:01:25;;;;;;;2.88;0.93;;;11.90;95.60;;;;;;5040021;28;20302;-61
2021/12/13 13:03:52;;;;;;;5.55;1.33;;;11.90;95.80;;;;;;5057871;28;20059;-60
2021/12/13 13:06:22;;;;;;;4.97;0.82;;;12.00;95.80;;;;;;5042024;28;20049;-60
2021/12/13 13:08:51;;;;;;;1.85;0.70;;;11.90;95.60;;;;;;5041887;28;20053;-59
2021/12/13 13:11:29;;;;;;;2.88;1.08;;;11.90;95.40;;;;;;5040352;28;20102;-61
2021/12/13 13:14:09;;;;;;;3.83;0.85;;;11.90;95.40;;;;;;5052013;28;20056;-60
2021/12/13 13:16:46;;;;;;;4.28;0.70;;;11.90;95.40;;;;;;5038834;28;20044;-59
2021/12/13 13:19:29;;;;;;;3.78;0.93;;;11.90;95.10;;;;;;5054553;28;20491;-59
2021/12/13 13:21:58;;;;;;;1.20;0.88;;;12.00;95.20;;;;;;5040133;28;20126;-60
2021/12/13 13:24:50;;;;;;;3.38;0.98;;;11.90;95.40;;;;;;5058705;28;20455;-59
2021/12/13 13:27:18;;;;;;;4.70;0.70;;;11.90;95.20;;;;;;5042003;28;20095;-61
2021/12/13 13:29:45;;;;;;;10.80;0.98;;;11.90;95.20;;;;;;5042893;28;20049;-59
2021/12/13 13:32:13;;;;;;;3.08;0.95;;;11.90;95.40;;;;;;5021999;28;20080;-60
2021/12/13 13:34:46;;;;;;;3.00;0.85;;;11.90;95.40;;;;;;5023256;28;20065;-60